• Join FlightAware (Why Join?)
  • Login
  • US Flag 
11:50PM EDT


 

Airport Tracker/Info


-or-


 

Live Flight TrackerFlight Track Log ✈ N7377R ✈ 06-Nov-2013 ✈ KHEF - KCTJ

Flight Track Log - Related Links

Times and Time Zones

All times are in EST time to prevent confusion due to time zone crossing. See the N7377R flight status page for this flight to view local times or setup timezone preferences in your user account.

Time Position Orientation Groundspeed Altitude Reporting Facility
EST Latitude Longitude Course Direction KTS MPH feet Rate Location/Type
05:34PM 38.6833 -77.5333 237° Southwest 112 129 2,100  Level Potomac TRACON
05:35PM 38.6833 -77.5833 270° West 120 138 2,700 720 Climbing Potomac TRACON
05:36PM 38.6667 -77.6000 218° Southwest 110 127 3,600 840 Climbing Potomac TRACON
05:37PM 38.6333 -77.6167 201° Southwest 112 129 4,400 780 Climbing Potomac TRACON
05:38PM 38.6000 -77.6500 218° Southwest 113 130 5,200 840 Climbing Potomac TRACON
05:39PM 38.5833 -77.6667 218° Southwest 109 125 6,100 360 Climbing Potomac TRACON
05:40PM 38.5500 -77.7000 218° Southwest 135 155 6,000  Descending Potomac TRACON
05:41PM 38.5167 -77.7167 201° Southwest 156 180 6,100 240 Climbing Potomac TRACON
05:42PM 38.4833 -77.7500 218° Southwest 141 162 6,500 540 Climbing Potomac TRACON
05:43PM 38.4500 -77.7667 201° Southwest 127 146 7,200 660 Climbing Potomac TRACON
05:44PM 38.4333 -77.8000 237° Southwest 121 139 7,900 420 Climbing Potomac TRACON
05:45PM 38.4000 -77.8167 201° Southwest 132 152 8,100 60 Climbing Potomac TRACON
05:46PM 38.3667 -77.8500 218° Southwest 146 168 8,100 -60 Level Potomac TRACON
05:47PM 38.3333 -77.8833 218° Southwest 151 174 8,000 -60 Descending Potomac TRACON
05:48PM 38.3000 -77.9000 201° Southwest 149 171 8,000  Level Potomac TRACON
05:49PM 38.2667 -77.9333 218° Southwest 149 171 8,000  Level Potomac TRACON
05:50PM 38.2333 -77.9667 218° Southwest 152 175 8,000  Level Potomac TRACON
05:51PM 38.2000 -78.0000 218° Southwest 152 175 8,000  Level Potomac TRACON
05:52PM 38.1667 -78.0333 218° Southwest 153 176 8,000  Level Potomac TRACON
05:53PM 38.1333 -78.0667 218° Southwest 152 175 8,100  Climbing Potomac TRACON
05:54PM 38.1167 -78.1000 238° Southwest 154 177 8,000 -60 Descending Potomac TRACON
05:55PM 38.0833 -78.1500 230° Southwest 151 174 8,000  Level Potomac TRACON
05:56PM 38.0500 -78.1833 218° Southwest 150 173 8,000  Level Potomac TRACON
05:57PM 38.0167 -78.2167 218° Southwest 153 176 8,000  Level Potomac TRACON
05:58PM 38.0000 -78.2667 247° West 146 168 8,000  Level Potomac TRACON
05:59PM 37.9667 -78.3000 218° Southwest 154 177 8,100  Climbing Potomac TRACON
06:00PM 37.9333 -78.3333 218° Southwest 147 169 8,000  Descending Potomac TRACON
06:01PM 37.9167 -78.3667 238° Southwest 151 174 8,100  Climbing Potomac TRACON
06:02PM 37.8833 -78.4167 230° Southwest 148 170 8,100 -60 Level Potomac TRACON
06:03PM 37.8500 -78.4500 218° Southwest 151 174 8,000 -60 Descending Potomac TRACON
06:04PM 37.8167 -78.4833 218° Southwest 152 175 8,000  Level Potomac TRACON
06:05PM 37.8000 -78.5167 238° Southwest 149 171 8,100  Climbing Potomac TRACON
06:06PM 37.7667 -78.5667 230° Southwest 154 177 8,100  Level Potomac TRACON
06:08PM 37.6951 -78.6204 211° Southwest  Level FlightAware Approximate
06:15PM 37.4699 -78.9094 230° Southwest  Level FlightAware Approximate
06:16PM 37.4405 -78.9530 230° Southwest  Level FlightAware Approximate
06:17PM 37.4110 -78.9965 230° Southwest  Level FlightAware Approximate
06:18PM 37.3816 -79.0399 230° Southwest  Level FlightAware Approximate
06:19PM 37.3521 -79.0834 230° Southwest  Level FlightAware Approximate
06:20PM 37.3226 -79.1268 229° Southwest  Level FlightAware Approximate
06:21PM 37.2931 -79.1701 229° Southwest  Level FlightAware Approximate
06:22PM 37.2636 -79.2134 229° Southwest  Level FlightAware Approximate
06:23PM 37.2335 -79.2561 228° Southwest  Level FlightAware Approximate
06:24PM 37.2029 -79.2982 228° Southwest  Level FlightAware Approximate
06:25PM 37.1723 -79.3403 228° Southwest  Level FlightAware Approximate
06:26PM 37.1417 -79.3824 228° Southwest  Level FlightAware Approximate
06:27PM 37.1113 -79.4247 230° Southwest  Level FlightAware Approximate
06:28PM 37.0822 -79.4684 230° Southwest  Level FlightAware Approximate
06:29PM 37.0531 -79.5120 230° Southwest  Level FlightAware Approximate
06:30PM 37.0248 -79.5564 232° Southwest  Level FlightAware Approximate
06:31PM 36.9965 -79.6009 231° Southwest  Level FlightAware Approximate
06:32PM 36.9682 -79.6453 231° Southwest  Level FlightAware Approximate
06:33PM 36.9399 -79.6897 231° Southwest  Level FlightAware Approximate
06:34PM 36.9103 -79.7328 229° Southwest  Level FlightAware Approximate
06:35PM 36.8803 -79.7754 229° Southwest  Level FlightAware Approximate
06:36PM 36.8503 -79.8179 229° Southwest  Level FlightAware Approximate
06:37PM 36.8203 -79.8605 229° Southwest  Level FlightAware Approximate
06:38PM 36.7902 -79.9030 229° Southwest  Level FlightAware Approximate
06:39PM 36.7602 -79.9454 229° Southwest  Level FlightAware Approximate
06:40PM 36.7308 -79.9885 238° Southwest  Level FlightAware Approximate
06:41PM 36.7040 -80.0340 228° Southwest  Level FlightAware Approximate
06:42PM 36.6735 -80.0758 228° Southwest  Level FlightAware Approximate
06:43PM 36.6428 -80.1176 228° Southwest  Level FlightAware Approximate
06:44PM 36.6122 -80.1593 228° Southwest  Level FlightAware Approximate
06:45PM 36.5816 -80.2011 228° Southwest  Level FlightAware Approximate
06:46PM 36.5508 -80.2429 228° Southwest  Level FlightAware Approximate
06:47PM 36.5204 -80.2849 229° Southwest  Level FlightAware Approximate
06:48PM 36.4903 -80.3272 229° Southwest  Level FlightAware Approximate
06:49PM 36.4601 -80.3696 228° Southwest  Level FlightAware Approximate
06:50PM 36.4300 -80.4118 228° Southwest  Level FlightAware Approximate
06:50PM 36.4850 -80.3592 228° Southwest 163 188 8,100  Level Atlanta Center
06:51PM 36.3998 -80.4541 228° Southwest  Level FlightAware Approximate
06:51PM 36.4589 -80.3964 229° Southwest 155 178 8,100  Level Atlanta Center
06:52PM 36.3696 -80.4963 228° Southwest  Level FlightAware Approximate
06:52PM 36.4269 -80.4444 230° Southwest 155 178 8,100  Level Atlanta Center
06:53PM 36.3394 -80.5385 228° Southwest  Level FlightAware Approximate
06:53PM 36.3969 -80.4844 227° Southwest 155 178 8,100  Level Atlanta Center
06:54PM 36.3092 -80.5807 228° Southwest  Level FlightAware Approximate
06:54PM 36.3667 -80.5269 229° Southwest 160 184 8,100  Level Atlanta Center
06:55PM 36.3389 -80.5694 231° Southwest 165 190 8,100  Level Atlanta Center
06:56PM 36.3128 -80.6092 231° Southwest 165 190 8,100  Level Atlanta Center
06:57PM 36.2825 -80.6492 227° Southwest 165 190 8,100  Level Atlanta Center
06:58PM 36.2525 -80.6917 229° Southwest 165 190 8,100  Level Atlanta Center
06:59PM 36.2244 -80.7339 231° Southwest 165 190 8,100  Level Atlanta Center
07:00PM 36.1922 -80.7764 227° Southwest 165 190 8,100  Level Atlanta Center
07:01PM 36.1642 -80.8189 231° Southwest 170 196 8,100  Level Atlanta Center
07:02PM 36.1319 -80.8664 230° Southwest 170 196 8,100  Level Atlanta Center
07:03PM 36.1039 -80.9086 231° Southwest 170 196 8,100  Level Atlanta Center
07:04PM 36.0736 -80.9508 228° Southwest 170 196 8,100  Level Atlanta Center
07:05PM 36.0414 -80.9958 228° Southwest 170 196 8,100  Level Atlanta Center
07:06PM 36.0111 -81.0378 228° Southwest 170 196 8,100  Level Atlanta Center
07:07PM 35.9831 -81.0800 231° Southwest 170 196 8,100  Level Atlanta Center
07:08PM 35.9528 -81.1222 228° Southwest 170 196 8,100  Level Atlanta Center
07:09PM 35.9225 -81.1642 228° Southwest 170 196 8,100  Level Atlanta Center
07:10PM 35.8922 -81.2064 228° Southwest 170 196 8,100  Level Atlanta Center
07:11PM 35.8661 -81.2508 234° Southwest 170 196 8,100  Level Atlanta Center
07:12PM 35.8442 -81.3003 241° Southwest 170 196 8,100  Level Atlanta Center
07:13PM 35.8244 -81.3469 242° Southwest 170 196 8,100  Level Atlanta Center
07:14PM 35.8025 -81.3939 240° Southwest 170 196 8,100  Level Atlanta Center
07:15PM 35.7786 -81.4458 240° Southwest 170 196 8,100  Level Atlanta Center
07:16PM 35.7586 -81.4925 242° Southwest 164 189 8,100  Level Atlanta Center
07:17PM 35.7347 -81.5444 240° Southwest 169 194 8,100 -60 Level Atlanta Center
07:18PM 35.7147 -81.5936 243° Southwest 169 194 8,000  Descending Atlanta Center
07:19PM 35.6928 -81.6403 240° Southwest 163 188 8,100  Climbing Atlanta Center
07:20PM 35.6686 -81.6922 240° Southwest 163 188 8,100  Level Atlanta Center
07:21PM 35.6467 -81.7386 240° Southwest 163 188 8,100  Level Atlanta Center
07:22PM 35.6267 -81.7878 243° Southwest 163 188 8,100  Level Atlanta Center
07:23PM 35.6025 -81.8397 240° Southwest 163 188 8,100  Level Atlanta Center
07:24PM 35.5806 -81.8886 241° Southwest 163 188 8,100  Level Atlanta Center
07:25PM 35.5583 -81.9353 240° Southwest 163 188 8,100  Level Atlanta Center
07:26PM 35.5361 -81.9842 241° Southwest 163 188 8,100  Level Atlanta Center
07:27PM 35.5142 -82.0333 241° Southwest 163 188 8,100  Level Atlanta Center
07:28PM 35.4942 -82.0822 243° Southwest 163 188 8,100  Level Atlanta Center
07:29PM 35.4697 -82.1314 239° Southwest 163 188 8,100  Level Atlanta Center
07:30PM 35.4475 -82.1803 241° Southwest 163 188 8,100  Level Atlanta Center
07:31PM 35.4275 -82.2292 243° Southwest 168 193 8,100  Level Atlanta Center
07:32PM 35.4053 -82.2781 241° Southwest 168 193 8,100  Level Atlanta Center
07:33PM 35.3786 -82.3169 230° Southwest 161 185 8,100  Level Atlanta Center
07:34PM 35.3478 -82.3556 226° Southwest 167 192 8,100  Level Atlanta Center
07:35PM 35.3172 -82.4022 231° Southwest 161 185 8,100  Level Atlanta Center
07:36PM 35.2906 -82.4408 230° Southwest 161 185 8,100  Level Atlanta Center
07:37PM 35.2619 -82.4847 231° Southwest 162 186 8,100  Level Atlanta Center
07:38PM 35.2333 -82.5258 230° Southwest 160 184 8,100  Level Atlanta Center
07:39PM 35.2006 -82.5747 231° Southwest 166 191 8,100  Level Atlanta Center
07:40PM 35.1717 -82.6108 226° Southwest 166 191 8,100  Level Atlanta Center
07:41PM 35.1428 -82.6494 228° Southwest 166 191 8,100  Level Atlanta Center
07:42PM 35.1122 -82.6956 231° Southwest 171 197 8,100  Level Atlanta Center
07:43PM 35.0833 -82.7392 231° Southwest 172 198 8,100  Level Atlanta Center
07:44PM 35.0567 -82.7778 230° Southwest 166 191 8,100  Level Atlanta Center
07:45PM 35.0278 -82.8186 229° Southwest 166 191 8,100  Level Atlanta Center
07:46PM 34.9969 -82.8647 231° Southwest 161 185 8,100  Level Atlanta Center
07:47PM 34.9703 -82.9006 228° Southwest 162 186 8,100  Level Atlanta Center
07:48PM 34.9394 -82.9467 231° Southwest 162 186 8,100 -60 Level Atlanta Center
07:49PM 34.9106 -82.9875 229° Southwest 162 186 8,000 -60 Descending Atlanta Center
07:50PM 34.8817 -83.0261 228° Southwest 162 186 8,000  Level Atlanta Center
07:51PM 34.8547 -83.0694 233° Southwest 162 186 8,000  Level Atlanta Center
07:52PM 34.8258 -83.1128 231° Southwest 162 186 8,000  Level Atlanta Center
07:53PM 34.7969 -83.1533 229° Southwest 162 186 8,000  Level Atlanta Center
07:54PM 34.7681 -83.1942 229° Southwest 162 186 8,000  Level Atlanta Center
07:55PM 34.7369 -83.2375 229° Southwest 162 186 8,000  Level Atlanta Center
07:56PM 34.7103 -83.2783 232° Southwest 162 186 8,000  Level Atlanta Center
07:57PM 34.6750 -83.3214 225° Southwest 162 186 8,000  Level Atlanta Center
07:58PM 34.6417 -83.3519 217° Southwest 162 186 8,000  Level Atlanta Center
07:59PM 34.6064 -83.3928 224° Southwest 162 186 8,000  Level Atlanta Center
08:00PM 34.5711 -83.4308 222° Southwest 162 186 8,000  Level Atlanta Center
08:01PM 34.5381 -83.4689 223° Southwest 162 186 8,100  Climbing Atlanta Center
08:02PM 34.5047 -83.5019 219° Southwest 162 186 8,000 -60 Descending Atlanta Center
08:03PM 34.4717 -83.5425 225° Southwest 168 193 8,000  Level Atlanta Center
08:04PM 34.4489 -83.5878 239° Southwest 163 188 8,000  Level Atlanta Center
08:05PM 34.4261 -83.6358 240° Southwest 163 188 8,000  Level Atlanta Center
08:06PM 34.4011 -83.6814 236° Southwest 163 188 8,000  Level Atlanta Center
08:07PM 34.3761 -83.7267 236° Southwest 163 188 8,000  Level Atlanta Center
08:08PM 34.3575 -83.7694 242° Southwest 163 188 8,000  Level Atlanta Center
08:09PM 34.3325 -83.8175 238° Southwest 163 188 8,000  Level Atlanta Center
08:10PM 34.3075 -83.8628 236° Southwest 163 188 8,000  Level Atlanta Center
08:11PM 34.2847 -83.9106 240° Southwest 163 188 8,000  Level Atlanta Center
08:12PM 34.2597 -83.9558 236° Southwest 163 188 8,000  Level Atlanta Center
08:13PM 34.2367 -84.0036 240° Southwest 163 188 8,000  Level Atlanta Center
08:14PM 34.2117 -84.0539 239° Southwest 163 188 8,000  Level Atlanta Center
08:15PM 34.1867 -84.1017 238° Southwest 163 188 8,000 -240 Level Atlanta Center
08:16PM 34.1678 -84.1517 245° Southwest 168 193 7,600 -540 Descending Atlanta Center
08:17PM 34.1333 -84.2500 247° West 191 220 6,600 -540 Descending Atlanta TRACON
08:18PM 34.1167 -84.3000 248° West 187 215 6,300 -360 Descending Atlanta TRACON
08:19PM 34.1000 -84.3667 253° West 180 207 6,000 -120 Descending Atlanta TRACON
08:20PM 34.0833 -84.4167 248° West 170 196 6,100 -60 Climbing Atlanta TRACON
08:21PM 34.0667 -84.4667 248° West 166 191 5,900 -300 Descending Atlanta TRACON
08:22PM 34.0333 -84.5167 231° Southwest 177 204 5,500 -420 Descending Atlanta TRACON
08:23PM 34.0167 -84.5667 248° West 175 201 5,100 -240 Descending Atlanta TRACON
08:24PM 34.0000 -84.6333 253° West 165 190 5,000 -60 Descending Atlanta TRACON
08:25PM 33.9833 -84.6833 248° West 160 184 5,000  Level Atlanta TRACON
08:26PM 33.9667 -84.7333 248° West 164 189 5,000  Level Atlanta TRACON
08:27PM 33.9500 -84.7833 248° West 157 181 5,100  Climbing Atlanta TRACON
08:28PM 33.9333 -84.8333 248° West 158 182 5,100 -60 Level Atlanta TRACON
08:29PM 33.9167 -84.8667 239° Southwest 157 181 5,000 -240 Descending Atlanta TRACON
08:30PM 33.9000 -84.9167 248° West 186 214 4,700 -300 Descending Atlanta TRACON
08:31PM 33.8667 -84.9500 220° Southwest 162 186 4,400 -360 Descending Atlanta TRACON
08:32PM 33.8333 -84.9833 220° Southwest 158 182 4,000 -360 Descending Atlanta TRACON
08:33PM 33.8000 -85.0167 220° Southwest 155 178 3,700 -360 Descending Atlanta TRACON
08:34PM 33.7500 -85.0500 209° Southwest 155 178 3,400 -60 Descending Atlanta TRACON
08:35PM 33.7333 -85.0667 220° Southwest 143 165 3,600 60 Climbing Atlanta TRACON
08:36PM 33.7000 -85.1167 231° Southwest 145 167 3,600 -360 Level Atlanta TRACON
08:38PM 33.6500 -85.1667 220° Southwest 138 159 2,600 -480 Descending Atlanta TRACON
08:39PM 33.6167 -85.1667 180° South 105 121 2,300 -300 Descending Atlanta TRACON
08:40PM 33.5833 -85.1667 180° South 115 132 2,100 -120 Descending Atlanta TRACON
08:41PM 33.5833 -85.1667 180° South 98 113 2,100  Level Atlanta TRACON
08:42PM 33.5833 -85.1667 40° Northeast 98 113 2,100  Level Atlanta TRACON